sensor_id;sensor_type;location;lat;lon;timestamp;P1;durP1;ratioP1;P2;durP2;ratioP2
68854;SDS011;69984;-43.570;172.580;2023-05-31T00:01:05;1.25;;;0.30;;
68854;SDS011;69984;-43.570;172.580;2023-05-31T00:03:32;2.10;;;0.60;;
68854;SDS011;69984;-43.570;172.580;2023-05-31T00:06:01;0.90;;;0.68;;
68854;SDS011;69984;-43.570;172.580;2023-05-31T00:08:28;3.15;;;0.55;;
68854;SDS011;69984;-43.570;172.580;2023-05-31T00:10:55;0.65;;;0.30;;
68854;SDS011;69984;-43.570;172.580;2023-05-31T00:13:22;1.55;;;0.40;;
68854;SDS011;69984;-43.570;172.580;2023-05-31T00:15:49;1.48;;;0.43;;
68854;SDS011;69984;-43.570;172.580;2023-05-31T00:18:16;1.90;;;0.40;;
68854;SDS011;69984;-43.570;172.580;2023-05-31T00:20:43;2.22;;;0.65;;
68854;SDS011;69984;-43.570;172.580;2023-05-31T00:23:10;8.60;;;0.73;;
68854;SDS011;69984;-43.570;172.580;2023-05-31T00:25:38;1.25;;;0.40;;
68854;SDS011;69984;-43.570;172.580;2023-05-31T00:28:05;0.95;;;0.20;;
68854;SDS011;69984;-43.570;172.580;2023-05-31T00:30:32;1.85;;;0.30;;
68854;SDS011;69984;-43.570;172.580;2023-05-31T00:32:59;1.17;;;0.60;;
68854;SDS011;69984;-43.570;172.580;2023-05-31T00:35:26;0.90;;;0.45;;
68854;SDS011;69984;-43.570;172.580;2023-05-31T00:37:53;2.83;;;0.57;;
68854;SDS011;69984;-43.570;172.580;2023-05-31T00:40:20;4.60;;;0.70;;
68854;SDS011;69984;-43.570;172.580;2023-05-31T00:42:47;2.88;;;0.50;;
68854;SDS011;69984;-43.570;172.580;2023-05-31T00:45:14;2.65;;;0.57;;
68854;SDS011;69984;-43.570;172.580;2023-05-31T00:47:41;5.38;;;0.68;;
68854;SDS011;69984;-43.570;172.580;2023-05-31T00:50:08;3.47;;;0.55;;
68854;SDS011;69984;-43.570;172.580;2023-05-31T00:52:36;3.95;;;0.60;;
68854;SDS011;69984;-43.570;172.580;2023-05-31T00:55:03;1.08;;;0.50;;
68854;SDS011;69984;-43.570;172.580;2023-05-31T00:57:31;4.45;;;0.30;;
68854;SDS011;69984;-43.570;172.580;2023-05-31T00:59:58;2.58;;;0.52;;
68854;SDS011;69984;-43.570;172.580;2023-05-31T01:02:26;2.83;;;0.35;;
68854;SDS011;69984;-43.570;172.580;2023-05-31T01:04:53;1.35;;;0.35;;
68854;SDS011;69984;-43.570;172.580;2023-05-31T01:07:20;0.60;;;0.20;;
68854;SDS011;69984;-43.570;172.580;2023-05-31T01:09:47;3.38;;;0.45;;
68854;SDS011;69984;-43.570;172.580;2023-05-31T01:15:13;1.67;;;0.10;;
68854;SDS011;69984;-43.570;172.580;2023-05-31T01:17:56;1.13;;;0.20;;
68854;SDS011;69984;-43.570;172.580;2023-05-31T01:20:32;1.50;;;0.20;;
68854;SDS011;69984;-43.570;172.580;2023-05-31T01:23:04;1.95;;;0.30;;
68854;SDS011;69984;-43.570;172.580;2023-05-31T01:28:24;0.65;;;0.20;;
68854;SDS011;69984;-43.570;172.580;2023-05-31T01:30:53;4.10;;;0.30;;
68854;SDS011;69984;-43.570;172.580;2023-05-31T01:33:21;0.73;;;0.22;;
68854;SDS011;69984;-43.570;172.580;2023-05-31T01:35:49;0.45;;;0.10;;
68854;SDS011;69984;-43.570;172.580;2023-05-31T01:38:16;2.90;;;0.20;;
68854;SDS011;69984;-43.570;172.580;2023-05-31T01:40:43;2.67;;;0.20;;
68854;SDS011;69984;-43.570;172.580;2023-05-31T01:43:11;0.55;;;0.10;;
68854;SDS011;69984;-43.570;172.580;2023-05-31T01:45:39;0.20;;;0.10;;
68854;SDS011;69984;-43.570;172.580;2023-05-31T01:48:07;0.15;;;0.10;;
68854;SDS011;69984;-43.570;172.580;2023-05-31T01:50:36;1.75;;;0.13;;
68854;SDS011;69984;-43.570;172.580;2023-05-31T01:53:04;0.90;;;0.20;;
68854;SDS011;69984;-43.570;172.580;2023-05-31T01:55:31;1.63;;;0.10;;
68854;SDS011;69984;-43.570;172.580;2023-05-31T01:57:58;0.57;;;0.10;;
68854;SDS011;69984;-43.570;172.580;2023-05-31T02:00:27;0.43;;;0.20;;
68854;SDS011;69984;-43.570;172.580;2023-05-31T02:02:55;0.80;;;0.35;;
68854;SDS011;69984;-43.570;172.580;2023-05-31T02:05:23;1.95;;;0.20;;
68854;SDS011;69984;-43.570;172.580;2023-05-31T02:07:50;1.75;;;0.10;;
68854;SDS011;69984;-43.570;172.580;2023-05-31T02:12:45;0.73;;;0.20;;
68854;SDS011;69984;-43.570;172.580;2023-05-31T02:15:16;0.75;;;0.10;;
68854;SDS011;69984;-43.570;172.580;2023-05-31T02:17:46;2.40;;;0.30;;
68854;SDS011;69984;-43.570;172.580;2023-05-31T02:20:16;1.33;;;0.30;;
68854;SDS011;69984;-43.570;172.580;2023-05-31T02:22:45;0.30;;;0.10;;
68854;SDS011;69984;-43.570;172.580;2023-05-31T02:25:13;0.47;;;0.10;;
68854;SDS011;69984;-43.570;172.580;2023-05-31T02:27:41;2.08;;;0.30;;
68854;SDS011;69984;-43.570;172.580;2023-05-31T02:30:08;2.10;;;0.30;;
68854;SDS011;69984;-43.570;172.580;2023-05-31T02:32:36;1.05;;;0.32;;
68854;SDS011;69984;-43.570;172.580;2023-05-31T02:35:12;0.20;;;0.10;;
68854;SDS011;69984;-43.570;172.580;2023-05-31T02:37:39;1.30;;;0.10;;
68854;SDS011;69984;-43.570;172.580;2023-05-31T02:40:06;0.90;;;0.15;;
68854;SDS011;69984;-43.570;172.580;2023-05-31T02:42:35;4.70;;;0.22;;
68854;SDS011;69984;-43.570;172.580;2023-05-31T02:45:04;0.32;;;0.08;;
68854;SDS011;69984;-43.570;172.580;2023-05-31T02:47:32;0.55;;;0.28;;
68854;SDS011;69984;-43.570;172.580;2023-05-31T02:49:59;0.77;;;0.30;;
68854;SDS011;69984;-43.570;172.580;2023-05-31T02:52:27;2.95;;;0.20;;
68854;SDS011;69984;-43.570;172.580;2023-05-31T02:54:54;2.00;;;0.20;;
68854;SDS011;69984;-43.570;172.580;2023-05-31T02:57:21;1.55;;;0.30;;
68854;SDS011;69984;-43.570;172.580;2023-05-31T02:59:48;1.55;;;0.30;;
68854;SDS011;69984;-43.570;172.580;2023-05-31T03:02:15;0.28;;;0.17;;
68854;SDS011;69984;-43.570;172.580;2023-05-31T03:04:42;1.17;;;0.20;;
68854;SDS011;69984;-43.570;172.580;2023-05-31T03:07:10;0.17;;;0.17;;
68854;SDS011;69984;-43.570;172.580;2023-05-31T03:09:37;6.30;;;0.40;;
68854;SDS011;69984;-43.570;172.580;2023-05-31T03:12:04;8.85;;;0.30;;
68854;SDS011;69984;-43.570;172.580;2023-05-31T03:14:32;6.70;;;0.22;;
68854;SDS011;69984;-43.570;172.580;2023-05-31T03:16:59;0.52;;;0.10;;
68854;SDS011;69984;-43.570;172.580;2023-05-31T03:19:26;1.42;;;0.10;;
68854;SDS011;69984;-43.570;172.580;2023-05-31T03:21:53;0.95;;;0.20;;
68854;SDS011;69984;-43.570;172.580;2023-05-31T03:24:20;0.22;;;0.10;;
68854;SDS011;69984;-43.570;172.580;2023-05-31T03:26:47;0.20;;;0.10;;
68854;SDS011;69984;-43.570;172.580;2023-05-31T03:29:14;6.50;;;0.20;;
68854;SDS011;69984;-43.570;172.580;2023-05-31T03:31:41;2.90;;;0.40;;
68854;SDS011;69984;-43.570;172.580;2023-05-31T03:34:08;3.55;;;0.47;;
68854;SDS011;69984;-43.570;172.580;2023-05-31T03:36:35;4.00;;;1.15;;
68854;SDS011;69984;-43.570;172.580;2023-05-31T03:39:02;1.65;;;0.45;;
68854;SDS011;69984;-43.570;172.580;2023-05-31T03:41:29;3.80;;;0.80;;
68854;SDS011;69984;-43.570;172.580;2023-05-31T03:43:57;3.30;;;1.25;;
68854;SDS011;69984;-43.570;172.580;2023-05-31T03:46:24;0.95;;;0.75;;
68854;SDS011;69984;-43.570;172.580;2023-05-31T03:48:51;1.92;;;1.38;;
68854;SDS011;69984;-43.570;172.580;2023-05-31T03:51:19;1.67;;;1.50;;
68854;SDS011;69984;-43.570;172.580;2023-05-31T03:53:46;3.42;;;1.38;;
68854;SDS011;69984;-43.570;172.580;2023-05-31T03:56:13;1.10;;;0.77;;
68854;SDS011;69984;-43.570;172.580;2023-05-31T03:58:40;0.85;;;0.80;;
68854;SDS011;69984;-43.570;172.580;2023-05-31T04:01:07;4.07;;;1.23;;
68854;SDS011;69984;-43.570;172.580;2023-05-31T04:03:34;4.00;;;1.30;;
68854;SDS011;69984;-43.570;172.580;2023-05-31T04:06:02;6.15;;;1.70;;
68854;SDS011;69984;-43.570;172.580;2023-05-31T04:08:29;5.18;;;2.17;;
68854;SDS011;69984;-43.570;172.580;2023-05-31T04:10:56;4.22;;;2.00;;
68854;SDS011;69984;-43.570;172.580;2023-05-31T04:13:23;3.47;;;1.85;;
68854;SDS011;69984;-43.570;172.580;2023-05-31T04:15:50;4.05;;;2.35;;
68854;SDS011;69984;-43.570;172.580;2023-05-31T04:18:17;5.90;;;2.30;;
68854;SDS011;69984;-43.570;172.580;2023-05-31T04:20:44;6.68;;;2.85;;
68854;SDS011;69984;-43.570;172.580;2023-05-31T04:23:11;2.80;;;2.20;;
68854;SDS011;69984;-43.570;172.580;2023-05-31T04:25:38;10.38;;;2.03;;
68854;SDS011;69984;-43.570;172.580;2023-05-31T04:28:05;6.78;;;2.40;;
68854;SDS011;69984;-43.570;172.580;2023-05-31T04:30:33;9.65;;;2.38;;
68854;SDS011;69984;-43.570;172.580;2023-05-31T04:33:00;6.15;;;2.92;;
68854;SDS011;69984;-43.570;172.580;2023-05-31T04:35:30;13.15;;;2.83;;
68854;SDS011;69984;-43.570;172.580;2023-05-31T04:37:58;12.90;;;2.70;;
68854;SDS011;69984;-43.570;172.580;2023-05-31T04:40:26;8.68;;;2.70;;
68854;SDS011;69984;-43.570;172.580;2023-05-31T04:42:57;12.98;;;2.72;;
68854;SDS011;69984;-43.570;172.580;2023-05-31T04:45:28;10.48;;;2.67;;
68854;SDS011;69984;-43.570;172.580;2023-05-31T04:47:58;5.80;;;2.97;;
68854;SDS011;69984;-43.570;172.580;2023-05-31T04:50:25;9.48;;;3.55;;
68854;SDS011;69984;-43.570;172.580;2023-05-31T04:52:52;8.77;;;3.40;;
68854;SDS011;69984;-43.570;172.580;2023-05-31T04:55:19;9.02;;;3.90;;
68854;SDS011;69984;-43.570;172.580;2023-05-31T04:57:46;6.40;;;3.88;;
68854;SDS011;69984;-43.570;172.580;2023-05-31T05:00:13;14.15;;;4.95;;
68854;SDS011;69984;-43.570;172.580;2023-05-31T05:02:41;18.35;;;4.57;;
68854;SDS011;69984;-43.570;172.580;2023-05-31T05:05:09;17.13;;;5.30;;
68854;SDS011;69984;-43.570;172.580;2023-05-31T05:07:36;17.85;;;5.65;;
68854;SDS011;69984;-43.570;172.580;2023-05-31T05:10:03;15.05;;;6.10;;
68854;SDS011;69984;-43.570;172.580;2023-05-31T05:12:30;14.00;;;6.68;;
68854;SDS011;69984;-43.570;172.580;2023-05-31T05:14:57;14.73;;;6.28;;
68854;SDS011;69984;-43.570;172.580;2023-05-31T05:17:24;16.15;;;7.60;;
68854;SDS011;69984;-43.570;172.580;2023-05-31T05:19:51;14.50;;;7.82;;
68854;SDS011;69984;-43.570;172.580;2023-05-31T05:22:18;29.63;;;10.10;;
68854;SDS011;69984;-43.570;172.580;2023-05-31T05:24:45;22.50;;;8.68;;
68854;SDS011;69984;-43.570;172.580;2023-05-31T05:27:12;23.90;;;9.68;;
68854;SDS011;69984;-43.570;172.580;2023-05-31T05:29:39;22.83;;;10.35;;
68854;SDS011;69984;-43.570;172.580;2023-05-31T05:32:06;19.02;;;10.10;;
68854;SDS011;69984;-43.570;172.580;2023-05-31T05:34:34;35.50;;;11.43;;
68854;SDS011;69984;-43.570;172.580;2023-05-31T05:37:01;20.20;;;10.65;;
68854;SDS011;69984;-43.570;172.580;2023-05-31T05:39:28;25.08;;;9.95;;
68854;SDS011;69984;-43.570;172.580;2023-05-31T05:41:55;18.35;;;10.40;;
68854;SDS011;69984;-43.570;172.580;2023-05-31T05:44:23;20.00;;;10.15;;
68854;SDS011;69984;-43.570;172.580;2023-05-31T05:46:50;25.58;;;10.40;;
68854;SDS011;69984;-43.570;172.580;2023-05-31T05:49:17;18.42;;;7.63;;
68854;SDS011;69984;-43.570;172.580;2023-05-31T05:51:44;16.33;;;9.32;;
68854;SDS011;69984;-43.570;172.580;2023-05-31T05:54:11;18.42;;;10.60;;
68854;SDS011;69984;-43.570;172.580;2023-05-31T05:56:38;20.80;;;10.93;;
68854;SDS011;69984;-43.570;172.580;2023-05-31T05:59:05;15.43;;;9.55;;
68854;SDS011;69984;-43.570;172.580;2023-05-31T06:01:32;16.92;;;9.63;;
68854;SDS011;69984;-43.570;172.580;2023-05-31T06:04:01;25.33;;;9.82;;
68854;SDS011;69984;-43.570;172.580;2023-05-31T06:06:28;24.50;;;11.43;;
68854;SDS011;69984;-43.570;172.580;2023-05-31T06:08:57;18.98;;;9.52;;
68854;SDS011;69984;-43.570;172.580;2023-05-31T06:11:24;20.30;;;10.35;;
68854;SDS011;69984;-43.570;172.580;2023-05-31T06:13:54;22.40;;;11.55;;
68854;SDS011;69984;-43.570;172.580;2023-05-31T06:16:23;21.55;;;11.68;;
68854;SDS011;69984;-43.570;172.580;2023-05-31T06:18:50;31.52;;;14.27;;
68854;SDS011;69984;-43.570;172.580;2023-05-31T06:21:17;45.22;;;18.27;;
68854;SDS011;69984;-43.570;172.580;2023-05-31T06:23:44;37.88;;;17.80;;
68854;SDS011;69984;-43.570;172.580;2023-05-31T06:26:11;35.53;;;17.02;;
68854;SDS011;69984;-43.570;172.580;2023-05-31T06:28:38;39.13;;;17.52;;
68854;SDS011;69984;-43.570;172.580;2023-05-31T06:31:05;39.00;;;16.95;;
68854;SDS011;69984;-43.570;172.580;2023-05-31T06:33:34;27.45;;;15.27;;
68854;SDS011;69984;-43.570;172.580;2023-05-31T06:36:02;23.75;;;12.95;;
68854;SDS011;69984;-43.570;172.580;2023-05-31T06:38:29;28.05;;;13.85;;
68854;SDS011;69984;-43.570;172.580;2023-05-31T06:40:56;28.90;;;14.38;;
68854;SDS011;69984;-43.570;172.580;2023-05-31T06:43:23;25.13;;;13.90;;
68854;SDS011;69984;-43.570;172.580;2023-05-31T06:45:50;26.52;;;13.07;;
68854;SDS011;69984;-43.570;172.580;2023-05-31T06:48:17;33.88;;;13.98;;
68854;SDS011;69984;-43.570;172.580;2023-05-31T06:50:44;37.50;;;16.45;;
68854;SDS011;69984;-43.570;172.580;2023-05-31T06:53:11;29.90;;;16.40;;
68854;SDS011;69984;-43.570;172.580;2023-05-31T06:55:38;35.85;;;17.30;;
68854;SDS011;69984;-43.570;172.580;2023-05-31T06:58:06;42.85;;;19.30;;
68854;SDS011;69984;-43.570;172.580;2023-05-31T07:00:33;34.35;;;17.55;;
68854;SDS011;69984;-43.570;172.580;2023-05-31T07:03:00;38.30;;;18.67;;
68854;SDS011;69984;-43.570;172.580;2023-05-31T07:05:28;30.58;;;15.88;;
68854;SDS011;69984;-43.570;172.580;2023-05-31T07:07:57;36.67;;;15.48;;
68854;SDS011;69984;-43.570;172.580;2023-05-31T07:10:25;26.02;;;13.85;;
68854;SDS011;69984;-43.570;172.580;2023-05-31T07:12:55;22.65;;;10.93;;
68854;SDS011;69984;-43.570;172.580;2023-05-31T07:15:22;18.45;;;10.25;;
68854;SDS011;69984;-43.570;172.580;2023-05-31T07:17:49;22.85;;;8.50;;
68854;SDS011;69984;-43.570;172.580;2023-05-31T07:20:16;15.30;;;7.68;;
68854;SDS011;69984;-43.570;172.580;2023-05-31T07:22:43;14.88;;;7.75;;
68854;SDS011;69984;-43.570;172.580;2023-05-31T07:25:10;12.40;;;5.57;;
68854;SDS011;69984;-43.570;172.580;2023-05-31T07:27:37;8.85;;;4.05;;
68854;SDS011;69984;-43.570;172.580;2023-05-31T07:30:05;5.63;;;4.15;;
68854;SDS011;69984;-43.570;172.580;2023-05-31T07:32:33;8.13;;;5.10;;
68854;SDS011;69984;-43.570;172.580;2023-05-31T07:35:00;6.65;;;4.53;;
68854;SDS011;69984;-43.570;172.580;2023-05-31T07:37:28;5.35;;;4.38;;
68854;SDS011;69984;-43.570;172.580;2023-05-31T07:39:56;8.48;;;4.15;;
68854;SDS011;69984;-43.570;172.580;2023-05-31T07:42:23;6.20;;;3.97;;
68854;SDS011;69984;-43.570;172.580;2023-05-31T07:44:50;8.95;;;4.95;;
68854;SDS011;69984;-43.570;172.580;2023-05-31T07:47:17;13.55;;;6.70;;
68854;SDS011;69984;-43.570;172.580;2023-05-31T07:49:45;5.90;;;4.97;;
68854;SDS011;69984;-43.570;172.580;2023-05-31T07:52:12;9.77;;;4.88;;
68854;SDS011;69984;-43.570;172.580;2023-05-31T07:54:47;7.30;;;3.95;;
68854;SDS011;69984;-43.570;172.580;2023-05-31T07:57:15;5.30;;;3.58;;
68854;SDS011;69984;-43.570;172.580;2023-05-31T07:59:43;5.75;;;3.75;;
68854;SDS011;69984;-43.570;172.580;2023-05-31T08:02:10;9.10;;;4.32;;
68854;SDS011;69984;-43.570;172.580;2023-05-31T08:04:37;11.27;;;4.28;;
68854;SDS011;69984;-43.570;172.580;2023-05-31T08:07:04;7.20;;;5.50;;
68854;SDS011;69984;-43.570;172.580;2023-05-31T08:09:32;11.93;;;5.68;;
68854;SDS011;69984;-43.570;172.580;2023-05-31T08:11:59;7.53;;;5.05;;
68854;SDS011;69984;-43.570;172.580;2023-05-31T08:14:28;12.32;;;5.93;;
68854;SDS011;69984;-43.570;172.580;2023-05-31T08:16:55;10.98;;;5.75;;
68854;SDS011;69984;-43.570;172.580;2023-05-31T08:19:22;13.38;;;5.97;;
68854;SDS011;69984;-43.570;172.580;2023-05-31T08:21:49;9.20;;;6.05;;
68854;SDS011;69984;-43.570;172.580;2023-05-31T08:24:17;7.38;;;6.60;;
68854;SDS011;69984;-43.570;172.580;2023-05-31T08:26:44;11.68;;;7.07;;
68854;SDS011;69984;-43.570;172.580;2023-05-31T08:29:12;16.52;;;8.38;;
68854;SDS011;69984;-43.570;172.580;2023-05-31T08:31:39;15.23;;;8.40;;
68854;SDS011;69984;-43.570;172.580;2023-05-31T08:34:06;17.85;;;8.48;;
68854;SDS011;69984;-43.570;172.580;2023-05-31T08:36:33;19.42;;;10.82;;
68854;SDS011;69984;-43.570;172.580;2023-05-31T08:39:01;20.17;;;11.27;;
68854;SDS011;69984;-43.570;172.580;2023-05-31T08:41:29;19.23;;;11.55;;
68854;SDS011;69984;-43.570;172.580;2023-05-31T08:44:02;16.75;;;10.85;;
68854;SDS011;69984;-43.570;172.580;2023-05-31T08:46:34;20.63;;;11.07;;
68854;SDS011;69984;-43.570;172.580;2023-05-31T08:49:08;19.88;;;10.55;;
68854;SDS011;69984;-43.570;172.580;2023-05-31T08:51:43;25.00;;;10.57;;
68854;SDS011;69984;-43.570;172.580;2023-05-31T08:54:12;21.40;;;10.75;;
68854;SDS011;69984;-43.570;172.580;2023-05-31T08:56:40;23.60;;;10.32;;
68854;SDS011;69984;-43.570;172.580;2023-05-31T08:59:10;13.00;;;8.55;;
68854;SDS011;69984;-43.570;172.580;2023-05-31T09:01:37;22.90;;;11.70;;
68854;SDS011;69984;-43.570;172.580;2023-05-31T09:04:05;32.88;;;14.65;;
68854;SDS011;69984;-43.570;172.580;2023-05-31T09:06:32;27.75;;;14.60;;
68854;SDS011;69984;-43.570;172.580;2023-05-31T09:09:00;30.08;;;15.02;;
68854;SDS011;69984;-43.570;172.580;2023-05-31T09:11:28;31.25;;;15.77;;
68854;SDS011;69984;-43.570;172.580;2023-05-31T09:13:55;31.08;;;14.75;;
68854;SDS011;69984;-43.570;172.580;2023-05-31T09:16:25;25.88;;;13.07;;
68854;SDS011;69984;-43.570;172.580;2023-05-31T09:19:03;29.83;;;11.43;;
68854;SDS011;69984;-43.570;172.580;2023-05-31T09:21:40;15.18;;;9.88;;
68854;SDS011;69984;-43.570;172.580;2023-05-31T09:24:09;20.58;;;11.52;;
68854;SDS011;69984;-43.570;172.580;2023-05-31T09:26:47;23.92;;;12.07;;
68854;SDS011;69984;-43.570;172.580;2023-05-31T09:29:15;22.23;;;11.70;;
68854;SDS011;69984;-43.570;172.580;2023-05-31T09:31:44;20.83;;;11.18;;
68854;SDS011;69984;-43.570;172.580;2023-05-31T09:36:52;23.90;;;11.65;;
68854;SDS011;69984;-43.570;172.580;2023-05-31T09:39:24;24.73;;;11.48;;
68854;SDS011;69984;-43.570;172.580;2023-05-31T09:41:52;26.60;;;11.30;;
68854;SDS011;69984;-43.570;172.580;2023-05-31T09:44:19;24.70;;;12.50;;
68854;SDS011;69984;-43.570;172.580;2023-05-31T09:46:53;23.38;;;11.43;;
68854;SDS011;69984;-43.570;172.580;2023-05-31T09:49:20;28.25;;;11.95;;
68854;SDS011;69984;-43.570;172.580;2023-05-31T09:51:50;22.20;;;11.23;;
68854;SDS011;69984;-43.570;172.580;2023-05-31T09:54:18;21.80;;;11.73;;
68854;SDS011;69984;-43.570;172.580;2023-05-31T09:56:50;22.55;;;10.40;;
68854;SDS011;69984;-43.570;172.580;2023-05-31T09:59:17;26.23;;;12.40;;
68854;SDS011;69984;-43.570;172.580;2023-05-31T10:01:44;16.65;;;9.65;;
68854;SDS011;69984;-43.570;172.580;2023-05-31T10:04:13;19.20;;;8.93;;
68854;SDS011;69984;-43.570;172.580;2023-05-31T10:06:41;24.33;;;9.32;;
68854;SDS011;69984;-43.570;172.580;2023-05-31T10:09:10;18.55;;;9.82;;
68854;SDS011;69984;-43.570;172.580;2023-05-31T10:11:39;15.07;;;10.27;;
68854;SDS011;69984;-43.570;172.580;2023-05-31T10:14:16;16.40;;;10.48;;
68854;SDS011;69984;-43.570;172.580;2023-05-31T10:16:53;20.73;;;10.13;;
68854;SDS011;69984;-43.570;172.580;2023-05-31T10:19:27;17.30;;;9.15;;
68854;SDS011;69984;-43.570;172.580;2023-05-31T10:22:03;20.75;;;9.02;;
68854;SDS011;69984;-43.570;172.580;2023-05-31T10:27:44;18.67;;;9.95;;
68854;SDS011;69984;-43.570;172.580;2023-05-31T10:30:16;16.15;;;9.60;;
68854;SDS011;69984;-43.570;172.580;2023-05-31T10:32:53;16.25;;;8.90;;
68854;SDS011;69984;-43.570;172.580;2023-05-31T10:35:26;21.27;;;7.20;;
68854;SDS011;69984;-43.570;172.580;2023-05-31T10:37:53;13.82;;;6.75;;
68854;SDS011;69984;-43.570;172.580;2023-05-31T10:40:27;10.00;;;5.70;;
68854;SDS011;69984;-43.570;172.580;2023-05-31T10:46:02;8.05;;;4.65;;
68854;SDS011;69984;-43.570;172.580;2023-05-31T10:51:18;7.80;;;3.60;;
68854;SDS011;69984;-43.570;172.580;2023-05-31T10:53:46;6.97;;;4.07;;
68854;SDS011;69984;-43.570;172.580;2023-05-31T10:56:13;6.78;;;4.18;;
68854;SDS011;69984;-43.570;172.580;2023-05-31T10:58:49;11.77;;;4.90;;
68854;SDS011;69984;-43.570;172.580;2023-05-31T11:01:17;12.65;;;3.70;;
68854;SDS011;69984;-43.570;172.580;2023-05-31T11:03:47;4.68;;;3.47;;
68854;SDS011;69984;-43.570;172.580;2023-05-31T11:06:16;6.65;;;3.17;;
68854;SDS011;69984;-43.570;172.580;2023-05-31T11:09:00;5.20;;;3.58;;
68854;SDS011;69984;-43.570;172.580;2023-05-31T11:14:22;12.43;;;5.15;;
68854;SDS011;69984;-43.570;172.580;2023-05-31T11:19:29;8.38;;;5.15;;
68854;SDS011;69984;-43.570;172.580;2023-05-31T11:22:05;13.48;;;4.10;;
68854;SDS011;69984;-43.570;172.580;2023-05-31T11:24:47;6.22;;;3.15;;
68854;SDS011;69984;-43.570;172.580;2023-05-31T11:27:19;5.38;;;3.75;;
68854;SDS011;69984;-43.570;172.580;2023-05-31T11:30:23;13.15;;;4.45;;
68854;SDS011;69984;-43.570;172.580;2023-05-31T11:33:00;7.35;;;4.05;;
68854;SDS011;69984;-43.570;172.580;2023-05-31T11:35:31;6.72;;;4.00;;
68854;SDS011;69984;-43.570;172.580;2023-05-31T11:38:02;5.43;;;3.95;;
68854;SDS011;69984;-43.570;172.580;2023-05-31T11:40:30;8.98;;;3.95;;
68854;SDS011;69984;-43.570;172.580;2023-05-31T11:43:04;7.72;;;4.90;;
68854;SDS011;69984;-43.570;172.580;2023-05-31T11:45:33;7.15;;;4.00;;
68854;SDS011;69984;-43.570;172.580;2023-05-31T11:50:53;9.25;;;4.22;;
68854;SDS011;69984;-43.570;172.580;2023-05-31T11:53:21;8.38;;;4.10;;
68854;SDS011;69984;-43.570;172.580;2023-05-31T11:55:48;8.40;;;4.03;;
68854;SDS011;69984;-43.570;172.580;2023-05-31T11:58:18;9.45;;;5.05;;
68854;SDS011;69984;-43.570;172.580;2023-05-31T12:00:48;6.93;;;4.90;;
68854;SDS011;69984;-43.570;172.580;2023-05-31T12:03:16;10.18;;;4.70;;
68854;SDS011;69984;-43.570;172.580;2023-05-31T12:05:51;11.73;;;5.53;;
68854;SDS011;69984;-43.570;172.580;2023-05-31T12:08:25;11.00;;;5.00;;
68854;SDS011;69984;-43.570;172.580;2023-05-31T12:11:00;9.68;;;5.35;;
68854;SDS011;69984;-43.570;172.580;2023-05-31T12:13:28;11.80;;;5.47;;
68854;SDS011;69984;-43.570;172.580;2023-05-31T12:15:55;7.85;;;4.68;;
68854;SDS011;69984;-43.570;172.580;2023-05-31T12:18:23;7.50;;;5.03;;
68854;SDS011;69984;-43.570;172.580;2023-05-31T12:20:50;9.48;;;4.65;;
68854;SDS011;69984;-43.570;172.580;2023-05-31T12:23:17;9.90;;;5.07;;
68854;SDS011;69984;-43.570;172.580;2023-05-31T12:25:48;9.77;;;4.82;;
68854;SDS011;69984;-43.570;172.580;2023-05-31T12:28:19;11.00;;;5.38;;
68854;SDS011;69984;-43.570;172.580;2023-05-31T12:30:49;11.75;;;5.57;;
68854;SDS011;69984;-43.570;172.580;2023-05-31T12:33:21;14.27;;;6.28;;
68854;SDS011;69984;-43.570;172.580;2023-05-31T12:35:49;11.70;;;6.22;;
68854;SDS011;69984;-43.570;172.580;2023-05-31T12:38:16;15.52;;;7.20;;
68854;SDS011;69984;-43.570;172.580;2023-05-31T12:40:43;13.02;;;6.53;;
68854;SDS011;69984;-43.570;172.580;2023-05-31T12:43:11;11.60;;;5.57;;
68854;SDS011;69984;-43.570;172.580;2023-05-31T12:45:43;11.07;;;6.65;;
68854;SDS011;69984;-43.570;172.580;2023-05-31T12:48:10;15.40;;;7.70;;
68854;SDS011;69984;-43.570;172.580;2023-05-31T12:50:46;15.52;;;6.97;;
68854;SDS011;69984;-43.570;172.580;2023-05-31T12:53:13;15.20;;;7.75;;
68854;SDS011;69984;-43.570;172.580;2023-05-31T12:55:41;9.45;;;5.88;;
68854;SDS011;69984;-43.570;172.580;2023-05-31T12:58:09;8.23;;;4.47;;
68854;SDS011;69984;-43.570;172.580;2023-05-31T13:00:36;5.25;;;3.22;;
68854;SDS011;69984;-43.570;172.580;2023-05-31T13:03:03;7.63;;;3.45;;
68854;SDS011;69984;-43.570;172.580;2023-05-31T13:05:38;5.22;;;3.00;;
68854;SDS011;69984;-43.570;172.580;2023-05-31T13:08:05;6.65;;;3.50;;
68854;SDS011;69984;-43.570;172.580;2023-05-31T13:10:32;6.05;;;2.72;;
68854;SDS011;69984;-43.570;172.580;2023-05-31T13:13:01;6.18;;;2.92;;
68854;SDS011;69984;-43.570;172.580;2023-05-31T13:15:29;5.70;;;2.78;;
68854;SDS011;69984;-43.570;172.580;2023-05-31T13:17:56;8.38;;;3.30;;
68854;SDS011;69984;-43.570;172.580;2023-05-31T13:20:23;7.88;;;3.42;;
68854;SDS011;69984;-43.570;172.580;2023-05-31T13:22:50;6.50;;;3.90;;
68854;SDS011;69984;-43.570;172.580;2023-05-31T13:25:17;7.50;;;3.17;;
68854;SDS011;69984;-43.570;172.580;2023-05-31T13:27:44;5.05;;;3.00;;
68854;SDS011;69984;-43.570;172.580;2023-05-31T13:30:11;3.97;;;2.55;;
68854;SDS011;69984;-43.570;172.580;2023-05-31T13:32:39;4.20;;;2.63;;
68854;SDS011;69984;-43.570;172.580;2023-05-31T13:35:06;6.45;;;2.42;;
68854;SDS011;69984;-43.570;172.580;2023-05-31T13:40:01;3.05;;;2.22;;
68854;SDS011;69984;-43.570;172.580;2023-05-31T13:42:28;3.13;;;1.85;;
68854;SDS011;69984;-43.570;172.580;2023-05-31T13:44:55;11.85;;;2.10;;
68854;SDS011;69984;-43.570;172.580;2023-05-31T13:47:22;2.88;;;1.80;;
68854;SDS011;69984;-43.570;172.580;2023-05-31T13:49:49;5.38;;;2.00;;
68854;SDS011;69984;-43.570;172.580;2023-05-31T13:52:16;6.75;;;2.22;;
68854;SDS011;69984;-43.570;172.580;2023-05-31T13:54:43;3.60;;;2.20;;
68854;SDS011;69984;-43.570;172.580;2023-05-31T13:57:10;10.90;;;2.15;;
68854;SDS011;69984;-43.570;172.580;2023-05-31T13:59:37;4.03;;;2.45;;
68854;SDS011;69984;-43.570;172.580;2023-05-31T14:02:05;5.35;;;1.65;;
68854;SDS011;69984;-43.570;172.580;2023-05-31T14:04:32;5.47;;;2.13;;
68854;SDS011;69984;-43.570;172.580;2023-05-31T14:06:59;4.85;;;2.35;;
68854;SDS011;69984;-43.570;172.580;2023-05-31T14:09:28;3.08;;;1.50;;
68854;SDS011;69984;-43.570;172.580;2023-05-31T14:11:55;1.75;;;1.63;;
68854;SDS011;69984;-43.570;172.580;2023-05-31T14:14:23;5.18;;;2.10;;
68854;SDS011;69984;-43.570;172.580;2023-05-31T14:16:52;5.43;;;1.70;;
68854;SDS011;69984;-43.570;172.580;2023-05-31T14:19:19;5.63;;;1.85;;
68854;SDS011;69984;-43.570;172.580;2023-05-31T14:21:46;4.65;;;1.60;;
68854;SDS011;69984;-43.570;172.580;2023-05-31T14:24:13;5.95;;;1.77;;
68854;SDS011;69984;-43.570;172.580;2023-05-31T14:26:40;5.35;;;1.85;;
68854;SDS011;69984;-43.570;172.580;2023-05-31T14:29:07;4.72;;;2.13;;
68854;SDS011;69984;-43.570;172.580;2023-05-31T14:31:34;8.13;;;2.47;;
68854;SDS011;69984;-43.570;172.580;2023-05-31T14:34:03;6.05;;;2.28;;
68854;SDS011;69984;-43.570;172.580;2023-05-31T14:36:30;6.28;;;2.35;;
68854;SDS011;69984;-43.570;172.580;2023-05-31T14:38:57;4.05;;;2.40;;